createdAt,value
2022-09-04T04:00:29.844Z,996.88
2022-09-04T04:05:29.756Z,996.95
2022-09-04T04:10:29.683Z,997.01
2022-09-04T04:15:29.640Z,996.96
2022-09-04T04:20:29.586Z,997.03
2022-09-04T04:25:29.541Z,997.06
2022-09-04T04:30:29.465Z,997.09
2022-09-04T04:35:29.426Z,997.16
2022-09-04T04:40:29.374Z,997.19
2022-09-04T04:45:29.301Z,997.28
2022-09-04T04:50:29.261Z,997.39
2022-09-04T04:55:29.208Z,997.44
2022-09-04T05:00:29.163Z,997.42
2022-09-04T05:05:29.103Z,997.45
2022-09-04T05:10:29.048Z,997.45
2022-09-04T05:15:29.122Z,997.63
2022-09-04T05:20:28.935Z,997.73
2022-09-04T05:25:28.880Z,997.77
2022-09-04T05:30:28.825Z,997.93
2022-09-04T05:35:31.931Z,997.88
2022-09-04T05:40:29.719Z,998.04
2022-09-04T05:45:28.664Z,998.23
2022-09-04T05:50:28.612Z,998.22
2022-09-04T05:55:28.558Z,998.24
2022-09-04T06:00:28.510Z,998.21
2022-09-04T06:05:28.453Z,998.32
2022-09-04T06:10:28.398Z,998.40
2022-09-04T06:15:28.346Z,998.46
2022-09-04T06:20:28.284Z,998.41
2022-09-04T06:25:28.231Z,998.51
2022-09-04T06:30:28.183Z,998.53
2022-09-04T06:35:28.129Z,998.57
2022-09-04T06:40:28.076Z,998.64
2022-09-04T06:45:28.017Z,998.66
2022-09-04T06:50:27.981Z,998.60
2022-09-04T06:55:27.910Z,998.67
2022-09-04T07:00:27.860Z,998.70
2022-09-04T07:05:27.807Z,998.78
2022-09-04T07:10:27.756Z,998.76
2022-09-04T07:15:27.733Z,998.85
2022-09-04T07:20:27.650Z,998.88
2022-09-04T07:25:27.594Z,998.82
2022-09-04T07:30:27.548Z,998.88
2022-09-04T07:35:27.491Z,999.00
2022-09-04T07:40:27.917Z,998.97
2022-09-04T07:45:27.388Z,999.09
2022-09-04T07:50:27.328Z,999.14
2022-09-04T07:55:27.274Z,999.09
2022-09-04T08:00:27.223Z,999.20
2022-09-04T08:05:27.169Z,999.22
2022-09-04T08:10:27.118Z,999.26
2022-09-04T08:15:27.130Z,999.32
2022-09-04T08:20:27.140Z,999.30
2022-09-04T08:25:26.954Z,999.42
2022-09-04T08:30:26.892Z,999.34
2022-09-04T08:35:26.837Z,999.44
2022-09-04T08:40:26.801Z,999.32
2022-09-04T08:45:26.864Z,999.49
2022-09-04T08:50:26.687Z,999.46
2022-09-04T08:55:26.623Z,999.50
2022-09-04T09:00:26.572Z,999.58
2022-09-04T09:05:26.521Z,999.65
2022-09-04T09:10:26.471Z,999.60
2022-09-04T09:15:26.413Z,999.72
2022-09-04T09:20:26.373Z,999.67
2022-09-04T09:25:26.321Z,999.66
2022-09-04T09:30:26.289Z,999.65
2022-09-04T09:35:26.211Z,999.56
2022-09-04T09:40:26.176Z,999.59
2022-09-04T09:45:26.091Z,999.55
2022-09-04T09:50:26.051Z,999.55
2022-09-04T09:55:26.008Z,999.55
2022-09-04T10:00:25.940Z,999.57
2022-09-04T10:05:25.897Z,999.51
2022-09-04T10:10:25.841Z,999.53
2022-09-04T10:15:33.132Z,999.51
2022-09-04T10:20:25.716Z,999.46
2022-09-04T10:25:25.679Z,999.47
2022-09-04T10:30:25.718Z,999.51
2022-09-04T10:35:25.643Z,999.48
2022-09-04T10:40:25.531Z,999.45
2022-09-04T10:45:25.456Z,999.48
2022-09-04T10:50:25.416Z,999.51
2022-09-04T10:55:25.364Z,999.49
2022-09-04T11:00:25.300Z,999.50
2022-09-04T11:05:25.264Z,999.48
2022-09-04T11:10:25.306Z,999.44
2022-09-04T11:15:25.144Z,999.54
2022-09-04T11:20:25.099Z,999.47
2022-09-04T11:25:25.050Z,999.41
2022-09-04T11:30:25.006Z,999.43
2022-09-04T11:35:24.929Z,999.50
2022-09-04T11:40:24.884Z,999.42
2022-09-04T11:45:24.975Z,999.39
2022-09-04T11:50:24.775Z,999.51
2022-09-04T11:55:24.736Z,999.44
2022-09-04T12:00:24.690Z,999.49
2022-09-04T12:05:24.617Z,999.46
2022-09-04T12:10:24.572Z,999.47
2022-09-04T12:15:24.525Z,999.41
2022-09-04T12:20:24.454Z,999.49
2022-09-04T12:25:24.434Z,999.51
2022-09-04T12:30:24.379Z,999.39
2022-09-04T12:35:27.474Z,999.43
2022-09-04T12:40:25.273Z,999.43
2022-09-04T12:45:24.281Z,999.41
2022-09-04T12:50:24.158Z,999.47
2022-09-04T12:55:24.090Z,999.40
2022-09-04T13:00:24.050Z,999.41
2022-09-04T13:05:24.002Z,999.40
2022-09-04T13:10:23.957Z,999.42
2022-09-04T13:15:23.906Z,999.42
2022-09-04T13:20:23.858Z,999.51
2022-09-04T13:25:23.783Z,999.56
2022-09-04T13:30:23.751Z,999.52
2022-09-04T13:35:23.690Z,999.54
2022-09-04T13:40:23.623Z,999.64
2022-09-04T13:45:23.581Z,999.61
2022-09-04T13:50:25.940Z,999.66
2022-09-04T13:55:23.463Z,999.68
2022-09-04T14:00:23.481Z,999.70
2022-09-04T14:05:23.378Z,999.80
2022-09-04T14:10:23.305Z,999.76
2022-09-04T14:15:23.260Z,999.68
2022-09-04T14:20:23.224Z,999.71
2022-09-04T14:25:24.230Z,999.74
2022-09-04T14:30:23.138Z,999.65
2022-09-04T14:35:23.052Z,999.73
2022-09-04T14:40:23.002Z,999.68
2022-09-04T14:45:22.958Z,999.69
2022-09-04T14:50:22.879Z,999.69
2022-09-04T14:55:22.839Z,999.70
2022-09-04T15:00:22.795Z,999.66
2022-09-04T15:05:22.722Z,999.70
2022-09-04T15:10:22.683Z,999.65
2022-09-04T15:15:22.629Z,999.61
2022-09-04T15:20:22.568Z,999.65
2022-09-04T15:25:36.649Z,999.59
2022-09-04T15:30:23.482Z,999.56
2022-09-04T15:35:22.403Z,999.44
2022-09-04T15:40:22.367Z,999.48
2022-09-04T15:45:22.316Z,999.53
2022-09-04T15:50:22.248Z,999.53
2022-09-04T15:55:22.210Z,999.55
2022-09-04T16:00:22.164Z,999.51
2022-09-04T16:05:24.005Z,999.47
2022-09-04T16:10:22.137Z,999.45
2022-09-04T16:15:21.996Z,999.45
2022-09-04T16:20:21.955Z,999.50
2022-09-04T16:25:23.575Z,999.51
2022-09-04T16:30:21.838Z,999.54
2022-09-04T16:35:21.794Z,999.42
2022-09-04T16:40:21.724Z,999.49
2022-09-04T16:45:21.686Z,999.46
2022-09-04T16:50:21.634Z,999.48
2022-09-04T16:55:21.587Z,999.51
2022-09-04T17:00:21.528Z,999.45
2022-09-04T17:05:21.478Z,999.46
2022-09-04T17:10:22.419Z,999.48
2022-09-04T17:15:21.354Z,999.44
2022-09-04T17:20:21.313Z,999.43
2022-09-04T17:28:59.892Z,999.44
2022-09-04T17:30:25.644Z,999.49
2022-09-04T17:40:43.588Z,999.39
2022-09-04T17:40:55.964Z,999.39
2022-09-04T17:45:22.095Z,999.42
2022-09-04T17:50:20.991Z,999.41
2022-09-04T17:55:21.198Z,999.39
2022-09-04T18:00:20.869Z,999.50
2022-09-04T18:05:20.825Z,999.51
2022-09-04T18:10:20.780Z,999.57
2022-09-04T18:15:34.306Z,999.59
2022-09-04T18:20:21.669Z,999.64
2022-09-04T18:25:20.621Z,999.69
2022-09-04T18:33:00.427Z,999.81
2022-09-04T18:37:24.736Z,999.87
2022-09-04T18:40:43.152Z,999.90
2022-09-04T18:50:46.626Z,999.94
2022-09-04T18:51:03.109Z,1000.03
2022-09-04T18:55:21.288Z,1000.11
2022-09-04T19:00:20.245Z,1000.06
2022-09-04T19:05:20.206Z,1000.17
2022-09-04T19:10:20.128Z,1000.22
2022-09-04T19:15:20.090Z,1000.24
2022-09-04T19:20:20.033Z,1000.23
2022-09-04T19:25:19.979Z,1000.22
2022-09-04T19:30:23.844Z,1000.21
2022-09-04T19:35:19.870Z,1000.30
2022-09-04T19:45:55.133Z,1000.22
2022-09-04T19:46:14.823Z,1000.24
2022-09-04T19:53:21.350Z,1000.27
2022-09-04T19:55:24.729Z,1000.26
2022-09-04T20:00:43.208Z,1000.30
2022-09-04T20:05:20.535Z,1000.36
2022-09-04T20:10:19.484Z,1000.41
2022-09-04T20:15:19.438Z,1000.42
2022-09-04T20:20:19.386Z,1000.39
2022-09-04T20:25:19.329Z,1000.40
2022-09-04T20:30:19.278Z,1000.39
2022-09-04T20:35:33.290Z,1000.50
2022-09-04T20:40:20.167Z,1000.48
2022-09-04T20:47:11.326Z,1000.50
2022-09-04T20:52:53.679Z,1000.52
2022-09-04T20:55:20.006Z,1000.48
2022-09-04T21:03:13.782Z,1000.51
2022-09-04T21:05:20.060Z,1000.47
2022-09-04T21:10:18.847Z,1000.49
2022-09-04T21:15:18.790Z,1000.62
2022-09-04T21:20:18.740Z,1000.57
2022-09-04T21:25:18.869Z,1000.56
2022-09-04T21:30:18.625Z,1000.63
2022-09-04T21:35:18.580Z,1000.62
2022-09-04T21:40:20.210Z,1000.60
2022-09-04T21:45:19.465Z,1000.67
2022-09-04T21:50:20.308Z,1000.61
2022-09-04T21:58:06.738Z,1000.71
2022-09-04T22:02:36.344Z,1000.76
2022-09-04T22:05:19.260Z,1000.70
2022-09-04T22:13:34.539Z,1000.71
2022-09-04T22:15:25.050Z,1000.68
2022-09-04T22:20:19.096Z,1000.67
2022-09-04T22:25:18.034Z,1000.64
2022-09-04T22:30:17.988Z,1000.70
2022-09-04T22:35:17.933Z,1000.71
2022-09-04T22:40:17.961Z,1000.73
2022-09-04T22:45:17.824Z,1000.78
2022-09-04T22:50:17.768Z,1000.81
2022-09-04T22:55:38.477Z,1000.79
2022-09-04T23:00:18.662Z,1000.73
2022-09-04T23:05:17.605Z,1000.68
2022-09-04T23:14:01.021Z,1000.76
2022-09-04T23:15:18.497Z,1000.83
2022-09-04T23:25:25.781Z,1000.76
2022-09-04T23:26:45.672Z,1000.72
